createdAt,value
2019-03-27T00:00:32.159Z,22.9
2019-03-27T00:03:38.064Z,22.8
2019-03-27T00:06:44.023Z,22.8
2019-03-27T00:09:49.985Z,22.8
2019-03-27T00:12:55.945Z,22.8
2019-03-27T00:16:01.979Z,22.9
2019-03-27T00:19:07.967Z,22.9
2019-03-27T00:22:13.850Z,22.9
2019-03-27T00:25:19.719Z,22.9
2019-03-27T00:28:25.769Z,22.9
2019-03-27T00:31:31.704Z,22.9
2019-03-27T00:34:37.600Z,22.9
2019-03-27T00:37:43.625Z,22.9
2019-03-27T00:40:49.585Z,22.9
2019-03-27T00:43:55.546Z,22.9
2019-03-27T00:47:01.433Z,22.9
2019-03-27T00:50:07.366Z,23
2019-03-27T00:53:13.326Z,23
2019-03-27T00:56:19.287Z,22.9
2019-03-27T00:59:25.171Z,23
2019-03-27T01:02:31.206Z,23
2019-03-27T01:08:04.871Z,22.9
2019-03-27T01:11:11.002Z,22.8
2019-03-27T02:48:02.880Z,21.9
2019-03-27T07:42:52.470Z,18.9
2019-03-27T07:46:19.147Z,18.6
2019-03-27T07:49:42.761Z,18.5
2019-03-27T07:53:00.715Z,18.9
2019-03-27T07:56:34.393Z,18.4
2019-03-27T08:00:10.430Z,18.3
2019-03-27T08:04:01.941Z,17.7
2019-03-27T08:07:28.330Z,18.2
2019-03-27T08:11:02.548Z,18.5
2019-03-27T08:14:48.119Z,18.3
2019-03-27T08:21:22.756Z,17.9
2019-03-27T08:31:00.156Z,18.4
2019-03-27T08:35:34.138Z,18.8
2019-03-27T08:38:55.056Z,18.8
2019-03-27T08:42:42.499Z,19.4
2019-03-27T08:47:06.896Z,19.2
2019-03-27T08:52:47.823Z,19.3
2019-03-27T08:56:28.065Z,19.1
2019-03-27T09:00:05.941Z,19
2019-03-27T09:03:45.920Z,19.7
2019-03-27T09:07:22.088Z,19.2
2019-03-27T09:10:46.928Z,19.2
2019-03-27T09:14:11.489Z,19
2019-03-27T09:17:46.325Z,19.2
2019-03-27T09:21:25.940Z,19.9
2019-03-27T09:24:50.408Z,19.6
2019-03-27T09:28:23.902Z,19.5
2019-03-27T09:31:50.858Z,19.2
2019-03-27T09:58:42.869Z,19.8
2019-03-27T10:01:48.777Z,19
2019-03-27T10:04:56.643Z,19.1
2019-03-27T10:08:02.720Z,19.3
2019-03-27T10:11:08.575Z,19
2019-03-27T11:16:43.963Z,18
2019-03-27T11:21:04.838Z,18.2
2019-03-27T11:25:02.500Z,18
2019-03-27T11:28:19.364Z,18.2
2019-03-27T11:31:48.560Z,18.1
2019-03-27T11:35:21.392Z,18.1
2019-03-27T11:38:49.959Z,18
2019-03-27T11:42:18.707Z,18
2019-03-27T11:46:18.126Z,18.6
2019-03-27T11:49:54.919Z,18
2019-03-27T11:53:24.345Z,18.1
2019-03-27T11:57:07.808Z,18.5
2019-03-27T12:00:13.924Z,17.9
2019-03-27T12:03:20.000Z,18.3
2019-03-27T12:06:25.907Z,18.3
2019-03-27T12:09:31.937Z,18.6
2019-03-27T12:12:37.938Z,18
2019-03-27T12:15:44.365Z,18.3
2019-03-27T12:18:50.534Z,18.3
2019-03-27T12:21:56.533Z,18.4
2019-03-27T12:25:05.515Z,19.4
2019-03-27T12:28:11.537Z,18.5
2019-03-27T12:31:17.873Z,18.7
2019-03-27T12:34:24.060Z,18.6
2019-03-27T12:37:30.067Z,18.5
2019-03-27T12:40:36.058Z,18.5
2019-03-27T12:43:42.213Z,18.2
2019-03-27T12:46:48.153Z,18.2
2019-03-27T12:49:58.286Z,17.9
2019-03-27T12:53:04.271Z,18.2
2019-03-27T12:56:10.329Z,17.9
2019-03-27T12:59:17.344Z,18
2019-03-27T13:02:23.604Z,18
2019-03-27T13:05:29.863Z,18
2019-03-27T13:08:36.049Z,17.7
2019-03-27T13:11:44.372Z,17.8
2019-03-27T13:14:51.254Z,17.8
2019-03-27T13:17:57.386Z,17.7
2019-03-27T13:21:03.322Z,17.8
2019-03-27T13:24:12.169Z,17.8
2019-03-27T13:27:18.127Z,17.4
2019-03-27T13:30:24.291Z,17.4
2019-03-27T13:33:30.251Z,17.5
2019-03-27T13:36:36.418Z,17.6
2019-03-27T13:39:42.294Z,17.7
2019-03-27T13:42:48.368Z,17.3
2019-03-27T13:45:54.512Z,17.5
2019-03-27T13:49:00.517Z,17.5
2019-03-27T13:52:06.689Z,17.7
2019-03-27T13:55:12.505Z,17.4
2019-03-27T13:58:18.552Z,17.7
2019-03-27T14:01:24.616Z,17.5
2019-03-27T14:04:30.672Z,17.4
2019-03-27T14:07:36.638Z,17.5
2019-03-27T14:10:42.695Z,17.3
2019-03-27T14:13:48.860Z,17.7
2019-03-27T14:16:54.947Z,17.6
2019-03-27T14:20:00.986Z,17.5
2019-03-27T14:23:10.131Z,17.3
2019-03-27T14:26:16.287Z,17.6
2019-03-27T14:29:22.254Z,17.6
2019-03-27T14:32:31.377Z,17.3
2019-03-27T14:35:37.334Z,17.3
2019-03-27T14:38:43.404Z,17.6
2019-03-27T14:41:49.361Z,17.6
2019-03-27T14:44:55.246Z,17.5
2019-03-27T14:48:01.278Z,17.4
2019-03-27T14:51:07.449Z,17.5
2019-03-27T14:54:13.511Z,17.4
2019-03-27T14:57:19.391Z,17.2
2019-03-27T15:00:25.327Z,17.6
2019-03-27T15:03:31.302Z,17.3
2019-03-27T15:06:37.162Z,17.5
2019-03-27T15:09:43.224Z,17.3
2019-03-27T15:12:49.265Z,17.4
2019-03-27T15:15:55.332Z,17.2
2019-03-27T15:19:01.291Z,17.2
2019-03-27T15:22:07.225Z,17
2019-03-27T15:25:27.860Z,17.2
2019-03-27T15:28:33.755Z,17.2
2019-03-27T15:31:39.788Z,17.2
2019-03-27T15:34:45.699Z,16.9
2019-03-27T15:37:51.693Z,17.1
2019-03-27T15:40:57.564Z,16.9
2019-03-27T15:44:06.586Z,16.9
2019-03-27T15:47:12.454Z,16.8
2019-03-27T15:50:21.676Z,16.7
2019-03-27T15:53:28.762Z,16.8
2019-03-27T15:56:34.643Z,16.8
2019-03-27T15:59:43.854Z,16.8
2019-03-27T16:02:49.934Z,16.7
2019-03-27T16:05:55.874Z,16.7
2019-03-27T16:09:01.939Z,16.6
2019-03-27T16:12:07.812Z,16.7
2019-03-27T16:15:13.959Z,16.7
2019-03-27T16:18:19.834Z,16.8
2019-03-27T16:21:25.754Z,16.7
2019-03-27T16:24:31.772Z,16.8
2019-03-27T16:27:37.712Z,16.5
2019-03-27T16:30:43.654Z,16.8
2019-03-27T16:33:49.615Z,16.7
2019-03-27T16:36:55.679Z,16.5
2019-03-27T16:40:01.743Z,16.7
2019-03-27T16:43:07.807Z,16.6
2019-03-27T16:46:13.871Z,16.5
2019-03-27T16:49:19.804Z,16.5
2019-03-27T16:52:25.789Z,16.3
2019-03-27T16:55:31.744Z,16.2
2019-03-27T16:58:37.806Z,16.2
2019-03-27T17:01:43.682Z,16.2
2019-03-27T17:04:49.726Z,16.1
2019-03-27T17:07:55.685Z,16.1
2019-03-27T17:11:01.644Z,16.1
2019-03-27T17:14:07.611Z,16
2019-03-27T17:17:13.480Z,15.9
2019-03-27T17:20:19.423Z,16
2019-03-27T17:23:25.327Z,16
2019-03-27T17:26:31.341Z,15.9
2019-03-27T17:29:37.508Z,15.7
2019-03-27T17:32:43.466Z,15.9
2019-03-27T17:35:49.359Z,15.9
2019-03-27T17:38:55.284Z,15.9
2019-03-27T17:42:01.159Z,15.9
2019-03-27T17:45:07.207Z,15.9
2019-03-27T17:48:13.164Z,15.7
2019-03-27T17:51:19.038Z,15.6
2019-03-27T17:54:25.085Z,15.8
2019-03-27T17:57:31.144Z,15.8
2019-03-27T18:00:37.120Z,15.9
2019-03-27T18:03:43.071Z,16
2019-03-27T18:06:49.049Z,16.2
2019-03-27T18:09:55.089Z,15.8
2019-03-27T18:13:01.047Z,16
2019-03-27T18:16:07.014Z,16
2019-03-27T18:19:12.966Z,15.9
2019-03-27T18:22:18.926Z,16
2019-03-27T18:25:25.067Z,15.9
2019-03-27T18:28:31.055Z,16
2019-03-27T18:31:37.008Z,16
2019-03-27T18:34:43.073Z,16.1
2019-03-27T18:37:48.950Z,16
2019-03-27T18:40:54.890Z,16
2019-03-27T18:44:03.923Z,16.1
2019-03-27T18:47:09.871Z,16.1
2019-03-27T18:50:15.761Z,16.1
2019-03-27T18:53:21.710Z,16.2
2019-03-27T18:56:27.771Z,16.2
2019-03-27T18:59:33.829Z,16.3
2019-03-27T19:02:39.772Z,16.4
2019-03-27T19:05:45.755Z,16.5
2019-03-27T19:08:51.628Z,16.6
2019-03-27T19:11:57.563Z,16.6
2019-03-27T19:15:03.435Z,16.7
2019-03-27T19:18:09.388Z,16.7
2019-03-27T19:21:15.463Z,16.9
2019-03-27T19:24:21.334Z,17
2019-03-27T19:27:27.472Z,17
2019-03-27T19:30:33.426Z,17.1
2019-03-27T19:33:39.386Z,17.1
2019-03-27T19:36:45.448Z,17.2
2019-03-27T19:39:51.420Z,17.2
2019-03-27T19:42:57.788Z,17.3
2019-03-27T19:46:04.093Z,17.4
2019-03-27T19:49:10.110Z,17.5
2019-03-27T19:52:16.081Z,17.6
2019-03-27T19:55:22.035Z,17.6
2019-03-27T19:58:27.941Z,17.7
2019-03-27T20:01:33.949Z,17.7
2019-03-27T20:04:39.908Z,17.8
2019-03-27T20:07:45.872Z,17.8
2019-03-27T20:10:51.833Z,17.9
2019-03-27T20:13:57.703Z,17.9
2019-03-27T20:17:03.574Z,18
2019-03-27T20:20:09.606Z,18.1
2019-03-27T20:23:16.282Z,18.2
2019-03-27T20:26:22.344Z,18.2
2019-03-27T20:29:28.405Z,18.2
2019-03-27T20:32:34.474Z,18.3
2019-03-27T20:35:40.547Z,18.4
2019-03-27T20:38:46.497Z,18.5
2019-03-27T20:41:52.558Z,18.6
2019-03-27T20:44:58.428Z,18.7
2019-03-27T20:48:04.684Z,18.7
2019-03-27T20:51:10.642Z,18.8
2019-03-27T20:54:16.604Z,18.9
2019-03-27T20:57:22.666Z,18.9
2019-03-27T21:00:28.627Z,19
2019-03-27T21:03:34.563Z,19.1
2019-03-27T21:06:40.557Z,19.2
2019-03-27T21:09:46.503Z,19.2
2019-03-27T21:12:57.023Z,19.3
2019-03-27T21:16:03.081Z,19.3
2019-03-27T21:19:09.076Z,19.4
2019-03-27T21:22:15.052Z,19.5
2019-03-27T21:25:21.018Z,19.6
2019-03-27T21:28:26.977Z,19.6
2019-03-27T21:31:32.965Z,19.7
2019-03-27T21:34:39.214Z,19.8
2019-03-27T21:37:45.072Z,19.9
2019-03-27T21:40:51.120Z,20
2019-03-27T21:43:57.005Z,20
2019-03-27T21:47:03.039Z,20.1
2019-03-27T21:50:08.915Z,20.2
2019-03-27T21:53:14.959Z,20.2
2019-03-27T21:56:20.843Z,20.3
2019-03-27T21:59:26.778Z,20.3
2019-03-27T22:02:32.739Z,20.4
2019-03-27T22:05:38.622Z,20.5
2019-03-27T22:08:44.558Z,20.6
2019-03-27T22:11:50.519Z,20.6
2019-03-27T22:14:56.576Z,20.7
2019-03-27T22:18:02.846Z,20.8
2019-03-27T22:21:08.808Z,20.8
2019-03-27T22:24:14.767Z,20.9
2019-03-27T22:27:20.649Z,21
2019-03-27T22:30:26.583Z,21
2019-03-27T22:33:32.483Z,21.2
2019-03-27T22:36:38.498Z,21.2
2019-03-27T22:39:44.574Z,21.2
2019-03-27T22:42:50.504Z,21.3
2019-03-27T22:45:59.844Z,21.3
2019-03-27T22:49:08.697Z,21.4
2019-03-27T22:52:14.660Z,21.5
2019-03-27T22:55:20.612Z,21.5
2019-03-27T22:58:26.636Z,21.5
2019-03-27T23:01:32.475Z,21.6
2019-03-27T23:04:38.389Z,21.6
2019-03-27T23:07:44.450Z,21.7
2019-03-27T23:10:50.513Z,21.8
2019-03-27T23:13:56.475Z,21.8
2019-03-27T23:17:02.377Z,21.9
2019-03-27T23:20:08.393Z,21.9
2019-03-27T23:23:14.355Z,21.9
2019-03-27T23:26:20.275Z,22
2019-03-27T23:29:26.304Z,22.1
2019-03-27T23:32:32.381Z,22.1
2019-03-27T23:35:38.396Z,22.2
2019-03-27T23:38:44.358Z,22.2
2019-03-27T23:41:50.319Z,22.2
2019-03-27T23:44:56.379Z,22.3
2019-03-27T23:48:02.633Z,22.3
2019-03-27T23:51:08.606Z,22.4
2019-03-27T23:54:14.489Z,22.4
2019-03-27T23:57:20.424Z,22.5
